Terminal Aerodrome Forecast
Issued by NWS

Home | Current Version | Previous Version | Text Only | Print | Product List | Glossary On
Versions: 1 2 3 4 5 6 7 8 9 10 11 12 13 14 15 16 17 18 19 20 21 22 23 24 25 26 27 28 29 30 31 32 33 34 35 36 37 38 39 40 41 42 43 44 45
000
FTUS45 KGJT 272341
TAFEGE
TAF
KEGE 272341Z 2800/2824 35007KT P6SM VCSH SCT035 BKN050 OVC080
      TEMPO 2800/2802 5SM -SHSN BR SCT020 BKN035
     FM280200 09003KT P6SM VCSH SCT015 BKN025 OVC040
     FM280900 00000KT P6SM VCFG FEW015 OVC040
     FM281900 23003KT P6SM VCSH SCT030 OVC050
      AMD LTD TO CLD VIS AND WIND 2806/2814=

USA.gov is the U.S. government's official web portal to all federal, state and local government web resources and services.